Overview Statistics Trail Chart Weather Telemetry Raw packets
 

This is the latest recevied weather packets stored in our database for station/object AB4KY. If no packets are shown the sender has not sent any weather packets the latest 10 day(s).

<< 91 92 93 94 95 96 97 >>
Time Temp. Humidity Pressure Rain* Wind** Luminosity Snow
1787940887 28.89° C 62% 1017.8 hPa 0 mm - 576 W/m² -
1787940584 28.33° C 66% 1017.7 hPa 0 mm - 542 W/m² -
1787940278 27.22° C 69% 1017.8 hPa 0 mm - 678 W/m² -
1787939973 27.22° C 68% 1017.8 hPa 0 mm - 136 W/m² -
1787939672 28.33° C 67% 1017.8 hPa 0 mm - 116 W/m² -
1787939367 28.33° C 63% 1017.7 hPa 0 mm - 697 W/m² -
1787939062 26.67° C 72% 1018 hPa 0 mm - 640 W/m² -
1787938761 26.67° C 71% 1017.9 hPa 0 mm - 97 W/m² -
1787938457 27.78° C 68% 1017.9 hPa 0 mm - 87 W/m² -
1787938152 27.22° C 69% 1018.2 hPa 0 mm - 681 W/m² -
1787937847 27.78° C 70% 1018 hPa 0 mm - 100 W/m² -
1787937544 28.33° C 70% 1018 hPa 0 mm - 691 W/m² -
1787937239 27.78° C 70% 1018.1 hPa 0 mm - 544 W/m² -
1787936934 27.78° C 69% 1018.1 hPa 0 mm - 592 W/m² -
1787936633 26.67° C 73% 1018.1 hPa 0 mm - 595 W/m² -
1787936333 25.56° C 77% 1017.9 hPa 0 mm - 574 W/m² -
1787936028 26.11° C 75% 1018.2 hPa 0 mm - 70 W/m² -
1787935724 26.11° C 74% 1018.1 hPa 0 mm - 624 W/m² -
1787935420 26.67° C 74% 1018.2 hPa 0 mm - 135 W/m² -
1787935116 27.78° C 72% 1018.4 hPa 0 mm - 646 W/m² -
1787934811 25.56° C 76% 1018.4 hPa 0 mm - 646 W/m² -
1787934510 26.11° C 73% 1018.2 hPa 0 mm - 103 W/m² -
1787934205 27.22° C 72% 1018.4 hPa 0 mm - 751 W/m² -
1787933904 26.67° C 73% 1018.4 hPa 0 mm - 330 W/m² -
1787933604 27.78° C 74% 1018.4 hPa 0 mm - 711 W/m² -

* Rain latest hour (hover to see other rain measurements)
** Current wind speed in m/s (hover to see current wind gust speed)